首页
METAR-TAF:

METAR-TAF

机场 :

雅典埃莱夫塞里奥斯·韦尼泽洛斯国际机场

雅典, 希腊

纬度: 37-56N, 经度: 023-56E, 海拔: 94米

当前天气观测

该预报发布于17分钟前的21:20 UTC
风速3节,风向多变
温度 18°C
湿度 56%
气压 1009 hPa
能见度10公里或以上
1500米以下无云,无积雨云

METAR: LGAV 232120Z VRB03KT CAVOK 18/09 Q1009 NOSIG

时间: 00:37 (21:37 UTC)

预报

该预报发布于4小时和37分钟前的17:00 UTC
预报有效从23日的 18点(UTC)到 24日的 18点(UTC)
风速10节,风向西南
能见度10公里或以上
少量云层高于2500英尺
几率 40% :
短暂存在
从 24日的 10点(UTC)到 24日的 16点(UTC)
能見度: 5000
少量云层高于1800英尺, 塔状积云.
多云层高于2000英尺
多云层高于7000英尺
几率 30% :
短暂存在
从 24日的 11点(UTC)到 24日的 15点(UTC)
能見度: 4000
少量云层高于1800英尺, 积雨云.
多云层高于2000英尺
多云层高于7000英尺
雷暴, 雨

TAF: LGAV 231700Z 2318/2418 23010KT 9999 FEW025 PROB40 TEMPO 2410/2416 5000 RA FEW018TCU BKN020 BKN070 PROB30 TEMPO 2411/2415 4000 TSRA FEW018CB BKN020 BKN070

超过4000个机场的气象观测和天气预报(METAR&TAF报告)。

可查询的气象台以黄色和红色小点在地图上表示。

将鼠标移到小点上方,可查看气象台名称。

然后点击查看天气观测和预报。

如需切换地图:点击带黑十字的绿色按钮放大地图;点击带横线的绿色按钮缩小地图;或者点击绿色箭头查看邻近地区的地图。


METAR-TAF: